Tok, AK (99776)

1:09 PM AKDT on July 27, 2016 (GMT -0800)
Turks on the Tundra | | Change Station

Elev 1635 ft 63.34 °N, 142.99 °W | Updated 4 minutes ago

Scattered Clouds
Scattered Clouds
73.0 °F
Feels Like 77 °F
N
3.0
Wind Variable Wind from SSE
Gusts 15.0 mph

Today
High -- | Low -- °F
--% Chance of Precip.
Yesterday
High -- | Low -- °F
Precip. -- in
Pressure 29.87 in
Visibility 10.0 miles
Clouds Few 5500 ft
Few 10000 ft
Scattered Clouds 20000 ft
Heat Index 77 °F
Dew Point 46 °F
Humidity 38%
Rainfall 0.00 in
Snow Depth Not available.
4:33 AM 10:40 PM
Last Quarter, 39% visible
METAR PAOR 272053Z 08005KT 10SM FEW055 FEW100 SCT200 21/07 A2988 RMK AO2 SLP115 T02060067 58013
Pressure 29.87 in
Visibility 10.0 miles
Clouds Few 5500 ft
Few 10000 ft
Scattered Clouds 20000 ft
Heat Index 77 °F
Dew Point 46 °F
Humidity 38%
Rainfall 0.00 in
Snow Depth Not available.
4:33 AM 10:40 PM
Last Quarter, 39% visible
METAR PAOR 272053Z 08005KT 10SM FEW055 FEW100 SCT200 21/07 A2988 RMK AO2 SLP115 T02060067 58013

10-Day Weather Forecast

Almanac

Astronomy

Jul. 27, 2016 Rise Set
Actual Time
Civil Twilight
Nautical Twilight
Astronomical Twilight
Moon
Length of Visible Light
Length of Day
Tomorrow will be .
, % of the Moon is Illuminated

Today's Extremes

State Highs State Lows

Community

WunderPhotos

Upload Photos

1,927,936 photos uploaded!

WunderBlog® & News

Nearby

Air Quality

  Air Quality AQ Index Pollutant
Not available.

Snow Depth

Station Depth Elevation

Earthquake Activity

City Distance Mag. Time & Date
Minimum magnitude displayed is 2.5.

Coastal Water Temperatures

Place Temperature

Stations

Nearby Weather Stations

Station Location Temp. Windchill Dew Point Humidity Wind Precip. Elev Updated Type
                   

Watches & Warnings

There are currently no watches in effect.